Time;durP1;ratioP1;P1;durP2;ratioP2;P2;SDS_P1;SDS_P2;PMS_P1;PMS_P2;Temp;Humidity;BMP_temperature;BMP_pressure;BME280_temperature;BME280_humidity;BME280_pressure;Samples;Min_cycle;Max_cycle;Signal;HPM_P1;HPM_P2
2023/09/24 00:03:00;;;;;;;3.73;2.40;;;;;;;13.36;100.00;101123.90;5011176;57;1140771;-76
2023/09/24 00:08:06;;;;;;;3.43;2.90;;;;;;;13.41;100.00;101134.17;5010831;57;1140876;-72
2023/09/24 00:13:12;;;;;;;3.42;3.12;;;;;;;13.37;100.00;101140.69;5030854;57;1140875;-79
2023/09/24 00:18:18;;;;;;;6.83;3.33;;;;;;;13.37;100.00;101143.34;5010055;57;1186935;-72
2023/09/24 00:23:23;;;;;;;8.00;2.70;;;;;;;13.40;100.00;101157.72;5002612;57;1140950;-76
2023/09/24 00:28:29;;;;;;;2.95;2.75;;;;;;;13.40;100.00;101162.19;4992134;57;1140820;-79
2023/09/24 00:33:35;;;;;;;2.33;2.13;;;;;;;13.35;100.00;101163.39;4937499;57;1140764;-72
2023/09/24 00:38:40;;;;;;;3.47;2.77;;;;;;;13.35;100.00;101163.88;4990809;57;1141139;-73
2023/09/24 00:43:46;;;;;;;3.17;2.07;;;;;;;13.30;100.00;101161.56;4952197;56;1140908;-74
2023/09/24 00:48:53;;;;;;;2.87;2.67;;;;;;;13.18;100.00;101168.33;5011238;57;1141021;-78
2023/09/24 00:54:00;;;;;;;3.00;2.53;;;;;;;13.12;100.00;101175.44;4936748;58;1140598;-78
2023/09/24 00:59:08;;;;;;;2.33;2.23;;;;;;;13.15;100.00;101181.36;4916733;57;1140759;-75
2023/09/24 01:04:14;;;;;;;3.70;2.33;;;;;;;13.20;100.00;101188.50;5061856;56;1140891;-71
2023/09/24 01:09:19;;;;;;;3.65;2.58;;;;;;;13.21;100.00;101186.21;5074257;56;1140914;-71
2023/09/24 01:14:25;;;;;;;2.62;2.42;;;;;;;13.19;100.00;101192.13;5074484;56;1141108;-71
2023/09/24 01:19:34;;;;;;;4.07;2.43;;;;;;;13.14;100.00;101199.55;5094697;56;1140680;-74
2023/09/24 01:24:38;;;;;;;5.80;2.70;;;;;;;13.07;100.00;101185.55;5079943;56;1140696;-76
2023/09/24 01:29:44;;;;;;;4.07;2.80;;;;;;;12.99;100.00;101188.79;5067289;56;1141056;-75
2023/09/24 01:34:50;;;;;;;6.53;3.37;;;;;;;12.97;100.00;101194.25;4977675;58;1141031;-75
2023/09/24 01:39:56;;;;;;;4.47;3.70;;;;;;;12.93;100.00;101190.13;4958550;57;1140726;-72
2023/09/24 01:45:01;;;;;;;9.80;4.30;;;;;;;12.90;100.00;101198.32;4958796;57;1141040;-76
2023/09/24 01:50:08;;;;;;;4.47;3.70;;;;;;;12.84;100.00;101189.96;5014788;57;1150168;-77
2023/09/24 01:55:15;;;;;;;3.85;3.37;;;;;;;12.79;100.00;101190.34;5040303;56;1140740;-78
2023/09/24 02:00:25;;;;;;;4.72;3.62;;;;;;;12.75;100.00;101200.81;5016187;56;1140758;-73
2023/09/24 02:05:35;;;;;;;6.67;3.20;;;;;;;12.73;100.00;101205.39;4993410;57;1140991;-74
2023/09/24 02:10:42;;;;;;;3.73;3.00;;;;;;;12.72;100.00;101217.45;4995447;57;1140824;-76
2023/09/24 02:15:48;;;;;;;7.30;3.63;;;;;;;12.65;100.00;101219.25;5010623;57;1140816;-72
2023/09/24 02:20:54;;;;;;;11.20;4.03;;;;;;;12.57;100.00;101229.58;4962692;57;1141189;-72
2023/09/24 02:26:00;;;;;;;5.43;3.43;;;;;;;12.52;100.00;101234.88;5114083;56;1142898;-73
2023/09/24 02:31:12;;;;;;;14.60;2.70;;;;;;;12.49;100.00;101247.89;5078878;56;1140890;-77
2023/09/24 02:36:18;;;;;;;3.27;2.93;;;;;;;12.45;100.00;101253.05;5078952;56;1143030;-76
2023/09/24 02:41:24;;;;;;;6.80;5.30;;;;;;;12.44;100.00;101252.67;5078815;56;1140827;-76
2023/09/24 02:46:29;;;;;;;7.43;5.73;;;;;;;12.42;100.00;101259.05;5157132;55;1141073;-75
2023/09/24 02:51:35;;;;;;;33.20;17.83;;;;;;;12.37;100.00;101255.91;5164459;55;1140953;-73
2023/09/24 02:56:41;;;;;;;32.70;18.30;;;;;;;12.32;100.00;101273.00;5135752;55;1144914;-70
2023/09/24 03:01:52;;;;;;;28.03;14.83;;;;;;;12.28;100.00;101286.11;5053211;57;1145077;-75
2023/09/24 03:06:54;;;;;;;8.93;6.37;;;;;;;12.23;100.00;101288.23;5010637;57;1145243;-77
2023/09/24 03:11:59;;;;;;;29.00;15.32;;;;;;;12.20;100.00;101294.27;4991083;57;1140729;-77
2023/09/24 03:17:05;;;;;;;61.63;26.67;;;;;;;12.14;100.00;101307.95;5014273;58;1144835;-76
2023/09/24 03:22:11;;;;;;;9.27;5.63;;;;;;;12.09;100.00;101315.37;5048989;56;1144939;-72
2023/09/24 03:27:16;;;;;;;10.50;5.53;;;;;;;12.03;100.00;101315.83;4995938;57;1141163;-77
2023/09/24 03:32:22;;;;;;;7.57;4.20;;;;;;;11.96;100.00;101324.69;4995985;58;1142977;-75
2023/09/24 03:37:28;;;;;;;3.47;3.17;;;;;;;11.89;100.00;101320.31;5016077;57;1140536;-74
2023/09/24 03:42:35;;;;;;;3.93;2.77;;;;;;;11.85;100.00;101331.23;5050222;56;1140735;-72
2023/09/24 03:47:41;;;;;;;4.93;2.57;;;;;;;11.77;100.00;101335.72;5073083;56;1140634;-77
2023/09/24 03:52:52;;;;;;;6.87;4.60;;;;;;;11.74;100.00;101338.58;5098273;56;1140808;-72
2023/09/24 03:57:59;;;;;;;6.53;3.10;;;;;;;11.72;100.00;101360.83;5031167;56;1140975;-71
2023/09/24 04:03:05;;;;;;;16.63;5.23;;;;;;;11.73;100.00;101364.70;5141663;56;1140959;-76
2023/09/24 04:08:11;;;;;;;3.67;3.33;;;;;;;11.73;100.00;101373.13;5184909;56;1142790;-76
2023/09/24 04:13:17;;;;;;;3.37;2.98;;;;;;;11.70;100.00;101379.48;5164753;55;1140747;-76
2023/09/24 04:18:23;;;;;;;6.37;3.50;;;;;;;11.69;100.00;101375.61;5140688;56;1141098;-73
2023/09/24 04:23:29;;;;;;;5.83;3.27;;;;;;;11.64;100.00;101386.52;5056935;56;1140914;-72
2023/09/24 04:28:35;;;;;;;2.97;2.67;;;;;;;11.50;100.00;101406.00;5040394;57;1141183;-77
2023/09/24 04:33:41;;;;;;;3.83;3.20;;;;;;;11.45;100.00;101414.75;5095752;56;1141015;-71
2023/09/24 04:38:47;;;;;;;3.03;2.70;;;;;;;11.44;100.00;101421.00;4954161;57;1140811;-74
2023/09/24 04:43:52;;;;;;;5.30;3.30;;;;;;;11.47;100.00;101423.41;4953872;58;1140814;-75
2023/09/24 04:48:58;;;;;;;3.33;2.97;;;;;;;11.44;100.00;101442.66;5037309;57;1140973;-74
2023/09/24 04:54:04;;;;;;;5.50;3.20;;;;;;;11.32;100.00;101443.45;5013186;57;1140854;-76
2023/09/24 04:59:12;;;;;;;3.60;3.30;;;;;;;11.26;100.00;101453.99;5060789;57;1140853;-75
2023/09/24 05:04:20;;;;;;;3.55;3.25;;;;;;;11.24;100.00;101456.73;5036078;56;1141010;-77
2023/09/24 05:09:25;;;;;;;8.43;3.20;;;;;;;11.24;100.00;101458.06;5008632;56;1140875;-74
2023/09/24 05:14:30;;;;;;;4.10;2.77;;;;;;;11.24;100.00;101459.86;5021724;57;1140767;-77
2023/09/24 05:19:36;;;;;;;7.10;2.58;;;;;;;11.23;100.00;101464.30;5037771;56;1141131;-78
2023/09/24 05:24:42;;;;;;;4.57;2.37;;;;;;;11.24;100.00;101469.98;5015246;56;1140735;-78
2023/09/24 05:29:48;;;;;;;3.73;2.83;;;;;;;11.17;100.00;101469.98;5002271;56;1140889;-72
2023/09/24 05:34:54;;;;;;;5.97;3.33;;;;;;;11.13;100.00;101487.05;5104469;56;1140956;-79
2023/09/24 05:40:00;;;;;;;4.10;3.40;;;;;;;11.25;100.00;101491.54;5064354;56;1140763;-76
2023/09/24 05:45:06;;;;;;;4.43;3.17;;;;;;;11.23;100.00;101493.91;5078341;56;1140853;-77
2023/09/24 05:50:12;;;;;;;4.90;3.00;;;;;;;11.23;100.00;101493.91;5046909;56;1140881;-79
2023/09/24 05:55:17;;;;;;;10.58;5.58;;;;;;;11.18;100.00;101494.67;4962457;57;1140763;-78
2023/09/24 06:00:24;;;;;;;92.67;22.77;;;;;;;11.25;100.00;101499.48;4982725;57;1143083;-75
2023/09/24 06:05:30;;;;;;;25.17;8.45;;;;;;;11.18;100.00;101517.17;5064121;56;1144953;-70
2023/09/24 06:10:36;;;;;;;12.28;6.25;;;;;;;11.15;100.00;101523.52;5014973;57;1142855;-75
2023/09/24 06:15:44;;;;;;;7.83;4.37;;;;;;;11.20;100.00;101527.20;4977749;57;1142867;-72
2023/09/24 06:20:49;;;;;;;8.00;3.70;;;;;;;11.38;100.00;101522.05;5042827;56;1141118;-71
2023/09/24 06:25:59;;;;;;;4.87;3.87;;;;;;;11.52;100.00;101528.61;4994595;57;1140800;-76
2023/09/24 06:31:05;;;;;;;7.27;4.80;;;;;;;11.58;100.00;101538.82;4996253;56;1140894;-74
2023/09/24 06:36:12;;;;;;;6.15;3.47;;;;;;;11.61;100.00;101543.89;5033727;56;1141041;-74
2023/09/24 06:41:17;;;;;;;4.90;4.17;;;;;;;11.59;100.00;101548.47;4972859;58;1140966;-77
2023/09/24 06:46:23;;;;;;;5.83;3.73;;;;;;;11.61;100.00;101573.04;4987867;56;1140869;-75
2023/09/24 06:51:28;;;;;;;4.43;3.33;;;;;;;11.67;100.00;101561.67;4982634;56;1140940;-78
2023/09/24 06:56:35;;;;;;;7.57;4.30;;;;;;;11.76;100.00;101570.40;5074638;57;1140791;-77
2023/09/24 07:01:41;;;;;;;7.10;4.37;;;;;;;11.89;100.00;101576.59;5045472;56;1140997;-77
2023/09/24 07:06:47;;;;;;;5.13;3.90;;;;;;;12.06;100.00;101585.60;5028645;56;1140888;-74
2023/09/24 07:11:53;;;;;;;8.20;4.17;;;;;;;12.26;100.00;101604.98;4982548;57;1140990;-79
2023/09/24 07:16:58;;;;;;;8.77;4.60;;;;;;;12.33;100.00;101598.33;4978182;57;1140879;-76
2023/09/24 07:22:04;;;;;;;9.07;6.60;;;;;;;12.43;100.00;101616.26;4967333;56;1140922;-70
2023/09/24 07:27:10;;;;;;;7.53;4.60;;;;;;;12.53;100.00;101634.09;5013146;58;1141361;-75
2023/09/24 07:32:16;;;;;;;8.57;4.33;;;;;;;12.62;100.00;101632.16;4932131;57;1141219;-75
2023/09/24 07:37:21;;;;;;;8.30;5.35;;;;;;;12.74;100.00;101637.58;5079770;56;1140590;-76
2023/09/24 07:42:27;;;;;;;7.93;4.47;;;;;;;12.91;100.00;101643.90;5075015;56;1140775;-71
2023/09/24 07:47:33;;;;;;;5.77;3.50;;;;;;;13.10;100.00;101653.62;5048269;56;1140731;-78
2023/09/24 07:52:39;;;;;;;5.07;4.23;;;;;;;13.25;100.00;101649.06;5077183;56;1141046;-78
2023/09/24 07:57:45;;;;;;;6.43;3.83;;;;;;;13.37;100.00;101656.16;5036200;54;1141011;-72
2023/09/24 08:02:51;;;;;;;6.97;4.33;;;;;;;13.63;100.00;101652.95;5006129;57;1141011;-72
2023/09/24 08:07:57;;;;;;;5.30;4.28;;;;;;;13.86;100.00;101648.16;5078905;56;1140585;-76
2023/09/24 08:13:04;;;;;;;6.90;4.20;;;;;;;14.00;100.00;101647.98;4997085;57;1140539;-70
2023/09/24 08:18:11;;;;;;;11.60;5.10;;;;;;;14.29;100.00;101656.45;4996531;57;1140914;-73
2023/09/24 08:23:18;;;;;;;6.87;4.87;;;;;;;14.48;100.00;101657.28;4996480;56;1143310;-78
2023/09/24 08:28:23;;;;;;;8.85;5.65;;;;;;;14.62;100.00;101660.22;4916445;57;1141162;-77
2023/09/24 08:33:29;;;;;;;5.97;4.47;;;;;;;14.90;100.00;101666.93;4917053;57;1141098;-75
2023/09/24 08:38:34;;;;;;;4.70;4.25;;;;;;;15.17;100.00;101671.91;5014667;56;1140647;-72
2023/09/24 08:43:42;;;;;;;6.63;3.83;;;;;;;15.34;100.00;101672.77;4974475;57;1140961;-77
2023/09/24 08:48:48;;;;;;;8.07;4.27;;;;;;;15.58;100.00;101674.02;5031468;56;1140787;-78
2023/09/24 08:53:54;;;;;;;4.53;4.13;;;;;;;15.83;100.00;101671.90;5013301;57;1140816;-78
2023/09/24 08:59:00;;;;;;;7.73;4.50;;;;;;;15.94;100.00;101674.17;5075835;56;1140934;-75
2023/09/24 09:04:06;;;;;;;10.53;4.60;;;;;;;16.15;100.00;101673.27;4926881;56;1141031;-72
2023/09/24 09:09:12;;;;;;;8.77;4.30;;;;;;;16.29;100.00;101677.94;4935079;57;1142955;-71
2023/09/24 09:14:17;;;;;;;5.73;3.30;;;;;;;16.35;100.00;101682.75;5025849;57;1141238;-75
2023/09/24 09:19:23;;;;;;;5.47;3.90;;;;;;;16.46;100.00;101695.59;4993941;57;1140914;-80
2023/09/24 09:24:28;;;;;;;12.73;4.08;;;;;;;16.74;100.00;101699.97;4996757;57;1140978;-78
2023/09/24 09:29:34;;;;;;;9.03;3.30;;;;;;;17.09;100.00;101692.95;5015615;57;1143064;-74
2023/09/24 09:34:52;;;;;;;4.50;3.33;;;;;;;17.13;100.00;101707.23;4995894;56;1140997;-79
2023/09/24 09:39:58;;;;;;;4.73;3.00;;;;;;;17.14;100.00;101706.75;5030104;56;1141001;-72
2023/09/24 09:45:11;;;;;;;3.47;3.27;;;;;;;17.12;100.00;101704.20;5099205;56;1141049;-75
2023/09/24 09:50:21;;;;;;;3.67;3.20;;;;;;;17.32;100.00;101712.33;5079769;56;1140771;-77
2023/09/24 09:55:26;;;;;;;3.12;2.85;;;;;;;17.32;100.00;101720.35;5074550;56;1141012;-77
2023/09/24 10:00:32;;;;;;;3.55;3.10;;;;;;;17.44;100.00;101720.61;4912233;57;1140854;-75
2023/09/24 10:05:38;;;;;;;3.40;3.10;;;;;;;17.37;100.00;101725.67;4935499;56;1140877;-75
2023/09/24 10:10:44;;;;;;;4.58;3.25;;;;;;;17.61;100.00;101728.02;4912254;58;1140832;-74
2023/09/24 10:15:50;;;;;;;5.00;2.53;;;;;;;17.78;100.00;101722.05;4960170;56;1141046;-73
2023/09/24 10:21:03;;;;;;;4.23;2.80;;;;;;;18.05;100.00;101724.08;4979703;57;1140836;-77
2023/09/24 10:26:13;;;;;;;4.37;2.35;;;;;;;18.23;100.00;101715.73;4990926;57;1140796;-72
2023/09/24 10:31:24;;;;;;;6.30;2.70;;;;;;;18.35;100.00;101723.13;4935760;57;1140750;-74
2023/09/24 10:36:35;;;;;;;3.45;2.50;;;;;;;18.44;100.00;101733.03;4977350;57;1141081;-71
2023/09/24 10:42:13;;;;;;;6.10;3.37;;;;;;;18.49;100.00;101733.92;5088018;56;1140777;-72
2023/09/24 10:47:30;;;;;;;4.72;2.75;;;;;;;18.49;100.00;101738.79;5089315;55;1140863;-66
2023/09/24 10:53:00;;;;;;;4.78;2.62;;;;;;;18.60;100.00;101731.16;5164462;55;1141266;-66
2023/09/24 10:58:12;;;;;;;6.67;2.90;;;;;;;18.85;100.00;101739.09;5065833;56;1140990;-68
2023/09/24 11:03:18;;;;;;;7.30;3.45;;;;;;;19.07;100.00;101740.13;5015344;57;1140772;-68
2023/09/24 11:08:27;;;;;;;1.90;1.70;;;;;;;19.29;100.00;101738.93;4913976;57;1140767;-67
2023/09/24 11:13:32;;;;;;;3.52;1.62;;;;;;;19.31;100.00;101742.31;5032220;56;1140848;-67
2023/09/24 11:18:38;;;;;;;2.90;1.90;;;;;;;19.26;100.00;101745.43;5015426;57;1140952;-68
2023/09/24 11:23:44;;;;;;;2.65;1.82;;;;;;;19.17;100.00;101750.83;5005277;56;1141024;-67
2023/09/24 11:28:49;;;;;;;2.47;1.85;;;;;;;19.15;100.00;101752.31;4994251;57;1140862;-66
2023/09/24 11:33:58;;;;;;;1.52;1.42;;;;;;;19.19;100.00;101752.37;5014758;57;1140899;-67
2023/09/24 11:39:03;;;;;;;2.45;1.70;;;;;;;18.92;100.00;101759.84;5025319;56;1140820;-67
2023/09/24 11:44:09;;;;;;;3.27;1.60;;;;;;;18.72;100.00;101755.47;5078390;56;1141240;-66
2023/09/24 11:49:15;;;;;;;2.92;1.50;;;;;;;18.89;100.00;101756.59;5068302;56;1140815;-70
2023/09/24 11:54:20;;;;;;;3.20;1.57;;;;;;;19.19;100.00;101753.72;4924281;57;1141250;-75
2023/09/24 11:59:28;;;;;;;1.65;1.32;;;;;;;19.22;100.00;101757.46;4983017;57;1140788;-71
2023/09/24 12:04:33;;;;;;;1.45;1.00;;;;;;;19.06;100.00;101759.89;5016356;57;1140936;-76
2023/09/24 12:09:39;;;;;;;1.85;1.30;;;;;;;19.20;100.00;101752.73;4996780;57;1140880;-74
2023/09/24 12:14:44;;;;;;;1.37;0.95;;;;;;;19.35;100.00;101758.97;4994856;56;1140735;-72
2023/09/24 12:19:52;;;;;;;4.05;1.50;;;;;;;19.54;100.00;101758.95;5091635;56;1140779;-72
2023/09/24 12:24:58;;;;;;;4.47;1.60;;;;;;;19.73;100.00;101753.97;4994419;57;1140770;-71
2023/09/24 12:30:04;;;;;;;1.42;1.07;;;;;;;20.02;100.00;101751.48;4992591;56;1140747;-73
2023/09/24 12:35:24;;;;;;;2.87;1.40;;;;;;;20.16;100.00;101758.22;5007045;57;1140773;-76
2023/09/24 12:40:30;;;;;;;3.05;1.30;;;;;;;20.35;100.00;101747.31;4919460;56;1140938;-74
2023/09/24 12:45:35;;;;;;;1.12;1.10;;;;;;;20.64;100.00;101750.30;5013907;57;1140784;-70
2023/09/24 12:50:41;;;;;;;1.55;1.00;;;;;;;20.75;100.00;101748.73;4960807;58;1140747;-71
2023/09/24 12:55:46;;;;;;;2.45;1.62;;;;;;;20.87;100.00;101758.24;4928589;57;1140736;-72
2023/09/24 13:00:52;;;;;;;1.47;1.10;;;;;;;20.92;100.00;101755.09;4857683;59;1141009;-74
2023/09/24 13:05:58;;;;;;;3.33;0.98;;;;;;;20.80;100.00;101754.97;4876548;58;1140649;-73
2023/09/24 13:11:03;;;;;;;4.87;1.87;;;;;;;20.55;97.48;101752.08;4857543;58;1140924;-71
2023/09/24 13:16:09;;;;;;;1.52;1.00;;;;;;;20.31;99.55;101748.64;4857944;58;1138852;-71
2023/09/24 13:21:15;;;;;;;4.80;1.20;;;;;;;20.09;99.10;101753.08;4875510;59;1138689;-70
2023/09/24 13:26:21;;;;;;;2.60;1.22;;;;;;;19.85;99.83;101755.50;4857392;58;1138527;-71
2023/09/24 13:31:26;;;;;;;2.93;1.13;;;;;;;19.73;100.00;101756.16;4858000;58;1138800;-74
2023/09/24 13:36:35;;;;;;;2.20;1.53;;;;;;;19.78;100.00;101748.52;4857469;59;1141057;-70
2023/09/24 13:41:41;;;;;;;0.90;0.90;;;;;;;19.91;100.00;101751.70;4913180;58;1140981;-72
2023/09/24 13:46:47;;;;;;;2.45;0.90;;;;;;;20.11;100.00;101746.22;4936774;57;1140752;-71
2023/09/24 13:51:52;;;;;;;1.35;0.95;;;;;;;20.29;100.00;101745.75;5093016;56;1140726;-71
2023/09/24 13:56:58;;;;;;;5.12;0.90;;;;;;;20.46;99.51;101754.36;5092153;56;1140997;-71
2023/09/24 14:02:05;;;;;;;1.20;0.72;;;;;;;20.58;99.27;101755.81;4962655;56;1138904;-73
2023/09/24 14:07:11;;;;;;;0.98;0.60;;;;;;;20.74;98.65;101758.30;4981573;57;1139135;-74
2023/09/24 14:12:24;;;;;;;1.30;1.17;;;;;;;20.74;96.22;101767.71;4975129;57;1138745;-73
2023/09/24 14:17:30;;;;;;;1.42;1.27;;;;;;;20.58;95.83;101763.88;4898443;57;1139130;-73
2023/09/24 14:22:37;;;;;;;1.40;1.30;;;;;;;20.36;96.79;101764.31;4944140;57;1138868;-74
2023/09/24 14:27:45;;;;;;;0.90;0.90;;;;;;;20.16;97.92;101762.74;4929171;57;1138910;-70
2023/09/24 14:32:50;;;;;;;1.37;1.02;;;;;;;20.13;99.10;101769.25;4915219;57;1176520;-73
2023/09/24 14:37:56;;;;;;;0.72;0.72;;;;;;;20.03;98.50;101765.27;4949634;57;1138849;-72
2023/09/24 14:43:01;;;;;;;1.36;1.10;;;;;;;20.07;98.96;101767.16;5040405;56;1138816;-74
2023/09/24 14:48:07;;;;;;;7.87;0.95;;;;;;;20.10;100.00;101766.86;5055076;56;1138772;-71
2023/09/24 14:53:12;;;;;;;2.85;1.07;;;;;;;20.18;98.81;101766.94;5034784;56;1140874;-74
2023/09/24 14:58:19;;;;;;;1.02;0.65;;;;;;;20.30;98.82;101768.44;4998950;56;1138961;-72
2023/09/24 15:03:25;;;;;;;1.58;0.70;;;;;;;20.50;98.05;101770.50;4992342;56;1138870;-72
2023/09/24 15:08:31;;;;;;;1.14;0.70;;;;;;;20.60;94.81;101772.64;5079429;57;1138864;-71
2023/09/24 15:13:41;;;;;;;0.90;0.90;;;;;;;20.58;93.93;101764.38;5101283;56;1138833;-72
2023/09/24 15:18:47;;;;;;;1.60;1.10;;;;;;;20.52;94.42;101773.04;5013808;57;1138683;-73
2023/09/24 15:23:52;;;;;;;0.50;0.50;;;;;;;20.54;95.49;101765.67;5071125;56;1138738;-73
2023/09/24 15:28:58;;;;;;;1.16;1.10;;;;;;;20.53;94.84;101771.55;5041319;57;1138846;-73
2023/09/24 15:34:04;;;;;;;1.67;0.88;;;;;;;20.53;95.29;101774.73;5067739;56;1138823;-75
2023/09/24 15:39:12;;;;;;;5.20;1.22;;;;;;;20.48;96.18;101777.88;5015153;57;1139045;-72
2023/09/24 15:44:17;;;;;;;1.25;1.10;;;;;;;20.51;96.64;101780.26;4984896;57;1138631;-73
2023/09/24 15:49:22;;;;;;;1.90;1.40;;;;;;;20.54;96.85;101781.30;5003651;57;1138709;-72
2023/09/24 15:54:28;;;;;;;2.77;1.35;;;;;;;20.56;96.63;101784.69;5019931;56;1138846;-74
2023/09/24 15:59:34;;;;;;;4.00;1.17;;;;;;;20.60;96.75;101791.95;5067499;56;1138910;-72
2023/09/24 16:04:39;;;;;;;2.65;1.22;;;;;;;20.57;96.91;101794.44;4957807;57;1230889;-74
2023/09/24 16:09:47;;;;;;;4.28;2.15;;;;;;;20.58;98.15;101802.85;5069931;55;1138766;-73
2023/09/24 16:14:53;;;;;;;5.12;3.40;;;;;;;20.61;98.72;101797.67;5004084;57;1138715;-72
2023/09/24 16:20:01;;;;;;;5.92;3.75;;;;;;;20.65;99.35;101803.91;4947297;57;1138901;-74
2023/09/24 16:25:09;;;;;;;4.15;3.40;;;;;;;20.66;99.12;101815.02;5007909;57;1138853;-75
2023/09/24 16:30:15;;;;;;;8.70;4.84;;;;;;;20.54;98.80;101818.93;4989823;57;1138772;-71
2023/09/24 16:35:20;;;;;;;16.15;6.80;;;;;;;20.35;99.09;101824.39;4974240;57;1139047;-75
2023/09/24 16:40:26;;;;;;;13.18;7.20;;;;;;;20.10;99.39;101825.95;4986026;57;1185411;-74
2023/09/24 16:45:31;;;;;;;14.43;8.10;;;;;;;19.85;100.00;101834.20;4995007;57;1248178;-74
2023/09/24 16:50:37;;;;;;;10.10;6.30;;;;;;;19.67;100.00;101838.64;5005826;57;1143107;-74
2023/09/24 16:55:43;;;;;;;6.47;4.65;;;;;;;19.52;100.00;101842.78;4999483;57;1142948;-71
2023/09/24 17:00:49;;;;;;;6.45;4.35;;;;;;;19.47;100.00;101847.69;4996975;57;1140718;-74
2023/09/24 17:05:54;;;;;;;23.52;12.10;;;;;;;19.42;100.00;101853.48;5080850;55;1140842;-71
2023/09/24 17:11:00;;;;;;;26.37;14.70;;;;;;;19.31;100.00;101861.70;4992827;57;1251192;-71
2023/09/24 17:16:18;;;;;;;33.30;16.17;;;;;;;19.21;100.00;101868.42;4992768;57;1250083;-72
2023/09/24 17:21:21;;;;;;;27.25;14.13;;;;;;;19.10;100.00;101866.35;5011984;57;1236927;-71
2023/09/24 17:26:27;;;;;;;32.28;19.62;;;;;;;18.97;100.00;101880.89;5055819;57;1243092;-74
2023/09/24 17:31:33;;;;;;;30.33;14.90;;;;;;;18.87;100.00;101891.27;4934573;57;1251330;-71
2023/09/24 17:36:39;;;;;;;24.15;13.98;;;;;;;18.74;100.00;101898.73;5013665;57;1145693;-73
2023/09/24 17:41:45;;;;;;;22.42;12.98;;;;;;;18.49;100.00;101903.55;5075629;56;1251856;-70
2023/09/24 17:46:51;;;;;;;27.48;12.60;;;;;;;18.05;100.00;101907.47;4995652;57;1260650;-72
2023/09/24 17:51:57;;;;;;;25.95;10.80;;;;;;;17.97;100.00;101905.13;5061634;56;1252753;-71
2023/09/24 17:57:02;;;;;;;15.78;9.68;;;;;;;17.86;100.00;101910.92;4979806;57;1262347;-72
2023/09/24 18:02:08;;;;;;;16.57;8.33;;;;;;;17.76;100.00;101920.70;4929508;58;1259544;-71
2023/09/24 18:07:14;;;;;;;31.40;14.90;;;;;;;17.74;100.00;101926.67;5023097;56;1260550;-70
2023/09/24 18:12:19;;;;;;;39.25;19.17;;;;;;;17.70;100.00;101933.29;4998094;57;1262607;-70
2023/09/24 18:17:25;;;;;;;57.43;25.23;;;;;;;17.67;100.00;101937.55;4954540;57;1256260;-71
2023/09/24 18:22:30;;;;;;;124.53;57.35;;;;;;;17.63;100.00;101938.75;4993568;56;1261072;-71
2023/09/24 18:27:38;;;;;;;110.02;51.30;;;;;;;17.55;100.00;101948.78;5056270;56;1147170;-70
2023/09/24 18:32:43;;;;;;;133.22;55.02;;;;;;;17.46;100.00;101951.36;5029249;57;1147124;-71
2023/09/24 18:37:49;;;;;;;123.40;49.53;;;;;;;17.33;100.00;101961.39;5034150;56;1146960;-72
2023/09/24 18:42:55;;;;;;;99.03;40.37;;;;;;;16.87;100.00;101969.17;5017362;57;1147030;-70
2023/09/24 18:48:01;;;;;;;83.62;36.38;;;;;;;16.64;100.00;101980.39;4989610;56;1144850;-74
2023/09/24 18:53:06;;;;;;;72.00;32.70;;;;;;;16.70;100.00;101985.71;5028733;56;1144948;-72
2023/09/24 18:58:12;;;;;;;68.23;31.87;;;;;;;16.42;100.00;101987.03;5017131;57;1145031;-70
2023/09/24 19:03:18;;;;;;;41.83;20.13;;;;;;;16.41;100.00;101999.53;5003370;57;1144912;-72
2023/09/24 19:08:24;;;;;;;69.93;31.80;;;;;;;16.39;100.00;101989.45;4990613;57;1145079;-74
2023/09/24 19:13:30;;;;;;;83.35;35.03;;;;;;;16.32;100.00;101993.59;5009073;56;1262530;-75
2023/09/24 19:18:36;;;;;;;89.47;41.10;;;;;;;16.25;100.00;101985.68;4980995;57;1209820;-73
2023/09/24 19:23:42;;;;;;;77.12;35.45;;;;;;;16.28;100.00;101996.61;4961546;57;1160711;-72
2023/09/24 19:28:47;;;;;;;43.70;20.93;;;;;;;16.00;100.00;101998.76;5007429;56;1144958;-71
2023/09/24 19:33:53;;;;;;;28.30;12.90;;;;;;;15.78;100.00;102000.02;5044731;56;1144810;-72
2023/09/24 19:38:59;;;;;;;24.33;13.20;;;;;;;15.38;100.00;102007.47;5038323;56;1145287;-70
2023/09/24 19:44:05;;;;;;;16.77;9.73;;;;;;;15.39;100.00;102014.50;4942121;57;1144998;-71
2023/09/24 19:49:13;;;;;;;14.57;9.37;;;;;;;15.48;100.00;102015.99;5003001;57;1143122;-71
2023/09/24 19:54:19;;;;;;;18.77;10.63;;;;;;;15.63;100.00;102026.52;5018494;56;1142784;-69
2023/09/24 19:59:24;;;;;;;24.10;13.17;;;;;;;15.73;100.00;102024.88;5013656;57;1144861;-70
2023/09/24 20:04:30;;;;;;;22.02;12.28;;;;;;;15.76;100.00;102032.14;5014516;57;1145310;-71
2023/09/24 20:09:42;;;;;;;35.13;19.92;;;;;;;15.72;100.00;102029.84;4982365;57;1145110;-73
2023/09/24 20:14:49;;;;;;;39.10;19.67;;;;;;;15.63;100.00;102030.52;5081246;56;1144894;-70
2023/09/24 20:19:55;;;;;;;35.47;17.77;;;;;;;15.54;100.00;102035.18;5015058;57;1144840;-72
2023/09/24 20:25:14;;;;;;;47.77;23.47;;;;;;;15.43;100.00;102043.47;5118671;56;1144967;-72
2023/09/24 20:30:19;;;;;;;41.90;21.15;;;;;;;15.24;100.00;102042.29;4999968;57;1145128;-70
2023/09/24 20:35:25;;;;;;;43.20;21.33;;;;;;;15.10;100.00;102041.48;5041136;56;1145006;-70
2023/09/24 20:40:31;;;;;;;53.63;22.42;;;;;;;15.05;100.00;102051.61;4949955;57;1145040;-70
2023/09/24 20:45:39;;;;;;;64.85;26.27;;;;;;;15.00;100.00;102045.75;5073951;55;1144969;-70
2023/09/24 20:50:45;;;;;;;60.83;26.02;;;;;;;14.99;100.00;102048.52;5030194;56;1144935;-73
2023/09/24 20:55:51;;;;;;;84.10;29.20;;;;;;;14.90;100.00;102046.05;4976104;55;1144977;-72
2023/09/24 21:00:59;;;;;;;71.00;28.70;;;;;;;14.85;100.00;102045.52;5100596;56;1144944;-70
2023/09/24 21:06:05;;;;;;;80.30;30.07;;;;;;;14.74;100.00;102040.11;4996401;57;1144919;-70
2023/09/24 21:11:11;;;;;;;78.77;30.47;;;;;;;14.53;100.00;102037.61;5078192;56;1145160;-70
2023/09/24 21:16:16;;;;;;;67.73;28.60;;;;;;;14.23;100.00;102040.09;5015066;57;1144792;-73
2023/09/24 21:21:22;;;;;;;95.90;40.87;;;;;;;14.25;100.00;102038.65;4981920;56;1145158;-70
2023/09/24 21:26:28;;;;;;;76.12;32.80;;;;;;;14.33;100.00;102035.00;5061433;56;1152691;-73
2023/09/24 21:31:34;;;;;;;72.70;29.12;;;;;;;14.37;100.00;102034.66;5126467;55;1145085;-72
2023/09/24 21:36:39;;;;;;;62.70;25.57;;;;;;;14.38;100.00;102031.04;5184467;56;1145581;-72
2023/09/24 21:41:45;;;;;;;71.62;28.15;;;;;;;14.39;100.00;102030.56;5164135;56;1145204;-72
2023/09/24 21:46:50;;;;;;;80.80;30.67;;;;;;;14.36;100.00;102018.31;5163775;55;1144983;-70
2023/09/24 21:51:56;;;;;;;85.30;30.60;;;;;;;14.30;100.00;102016.58;5097912;56;1144776;-70
2023/09/24 21:57:02;;;;;;;82.10;28.50;;;;;;;14.16;100.00;102009.55;5077294;56;1144936;-71
2023/09/24 22:02:07;;;;;;;63.60;23.97;;;;;;;14.09;100.00;102009.11;5077993;56;1144942;-71
2023/09/24 22:07:13;;;;;;;71.40;23.10;;;;;;;14.04;100.00;102007.73;5113206;56;1144989;-71
2023/09/24 22:12:18;;;;;;;59.50;23.70;;;;;;;13.93;100.00;102009.78;5098220;56;1145145;-73
2023/09/24 22:17:24;;;;;;;63.33;25.63;;;;;;;13.67;100.00;102009.36;5098203;56;1145091;-70
2023/09/24 22:22:31;;;;;;;50.33;22.58;;;;;;;13.33;100.00;102013.39;5098412;56;1149994;-70
2023/09/24 22:27:37;;;;;;;60.30;23.12;;;;;;;13.15;100.00;102013.25;5118253;56;1145028;-72
2023/09/24 22:32:43;;;;;;;48.38;21.25;;;;;;;12.97;100.00;102018.78;5098525;56;1144998;-73
2023/09/24 22:37:49;;;;;;;48.20;19.27;;;;;;;13.02;100.00;102007.84;5098434;56;1145071;-71
2023/09/24 22:42:55;;;;;;;34.43;15.43;;;;;;;12.98;100.00;102011.67;5118351;56;1145194;-72
2023/09/24 22:48:00;;;;;;;43.73;16.93;;;;;;;12.99;100.00;102018.19;5102491;56;1145109;-70